sensor_id;sensor_type;location;lat;lon;timestamp;pressure;altitude;pressure_sealevel;temperature;humidity
36748;BME280;22716;51.556;5.080;2022-12-18T00:00:15;102620.31;;;-3.31;100.00
36748;BME280;22716;51.556;5.080;2022-12-18T00:02:46;102616.31;;;-3.39;100.00
36748;BME280;22716;51.556;5.080;2022-12-18T00:05:15;102610.66;;;-3.47;100.00
36748;BME280;22716;51.556;5.080;2022-12-18T00:07:44;102614.88;;;-3.47;100.00
36748;BME280;22716;51.556;5.080;2022-12-18T00:10:12;102618.97;;;-3.49;100.00
36748;BME280;22716;51.556;5.080;2022-12-18T00:12:41;102616.00;;;-3.44;100.00
36748;BME280;22716;51.556;5.080;2022-12-18T00:15:10;102618.34;;;-3.35;100.00
36748;BME280;22716;51.556;5.080;2022-12-18T00:17:39;102606.16;;;-3.38;100.00
36748;BME280;22716;51.556;5.080;2022-12-18T00:20:11;102596.81;;;-3.37;100.00
36748;BME280;22716;51.556;5.080;2022-12-18T00:22:39;102596.81;;;-3.37;100.00
36748;BME280;22716;51.556;5.080;2022-12-18T00:25:08;102597.72;;;-3.36;100.00
36748;BME280;22716;51.556;5.080;2022-12-18T00:27:37;102582.69;;;-3.44;100.00
36748;BME280;22716;51.556;5.080;2022-12-18T00:30:07;102575.19;;;-3.52;100.00
36748;BME280;22716;51.556;5.080;2022-12-18T00:32:36;102578.19;;;-3.46;100.00
36748;BME280;22716;51.556;5.080;2022-12-18T00:35:07;102569.88;;;-3.55;100.00
36748;BME280;22716;51.556;5.080;2022-12-18T00:37:38;102579.22;;;-3.56;100.00
36748;BME280;22716;51.556;5.080;2022-12-18T00:40:09;102583.69;;;-3.53;100.00
36748;BME280;22716;51.556;5.080;2022-12-18T00:42:38;102585.44;;;-3.52;100.00
36748;BME280;22716;51.556;5.080;2022-12-18T00:45:19;102585.56;;;-3.51;100.00
36748;BME280;22716;51.556;5.080;2022-12-18T00:47:48;102577.56;;;-3.55;100.00
36748;BME280;22716;51.556;5.080;2022-12-18T00:50:17;102572.19;;;-3.58;100.00
36748;BME280;22716;51.556;5.080;2022-12-18T00:52:49;102575.31;;;-3.62;100.00
36748;BME280;22716;51.556;5.080;2022-12-18T00:55:18;102571.75;;;-3.64;100.00
36748;BME280;22716;51.556;5.080;2022-12-18T00:57:47;102569.19;;;-3.64;100.00
36748;BME280;22716;51.556;5.080;2022-12-18T01:00:16;102582.63;;;-3.67;100.00
36748;BME280;22716;51.556;5.080;2022-12-18T01:02:45;102576.97;;;-3.74;100.00
36748;BME280;22716;51.556;5.080;2022-12-18T01:05:14;102582.22;;;-3.73;100.00
36748;BME280;22716;51.556;5.080;2022-12-18T01:07:43;102582.84;;;-3.75;100.00
36748;BME280;22716;51.556;5.080;2022-12-18T01:10:14;102599.25;;;-3.73;100.00
36748;BME280;22716;51.556;5.080;2022-12-18T01:12:43;102595.88;;;-3.72;100.00
36748;BME280;22716;51.556;5.080;2022-12-18T01:15:13;102601.44;;;-3.78;100.00
36748;BME280;22716;51.556;5.080;2022-12-18T01:17:42;102594.19;;;-3.83;100.00
36748;BME280;22716;51.556;5.080;2022-12-18T01:20:12;102587.28;;;-3.84;100.00
36748;BME280;22716;51.556;5.080;2022-12-18T01:22:41;102599.91;;;-3.76;100.00
36748;BME280;22716;51.556;5.080;2022-12-18T01:25:10;102598.66;;;-3.81;100.00
36748;BME280;22716;51.556;5.080;2022-12-18T01:27:41;102589.09;;;-3.83;100.00
36748;BME280;22716;51.556;5.080;2022-12-18T01:30:11;102591.41;;;-3.86;100.00
36748;BME280;22716;51.556;5.080;2022-12-18T01:32:40;102575.25;;;-3.97;100.00
36748;BME280;22716;51.556;5.080;2022-12-18T01:35:09;102598.53;;;-3.94;100.00
36748;BME280;22716;51.556;5.080;2022-12-18T01:37:38;102606.22;;;-3.94;100.00
36748;BME280;22716;51.556;5.080;2022-12-18T01:40:09;102588.97;;;-3.97;100.00
36748;BME280;22716;51.556;5.080;2022-12-18T01:42:37;102583.47;;;-4.01;100.00
36748;BME280;22716;51.556;5.080;2022-12-18T01:45:22;102585.72;;;-3.94;100.00
36748;BME280;22716;51.556;5.080;2022-12-18T01:47:53;102578.16;;;-3.92;100.00
36748;BME280;22716;51.556;5.080;2022-12-18T01:50:27;102579.19;;;-3.90;100.00
36748;BME280;22716;51.556;5.080;2022-12-18T01:52:58;102584.41;;;-3.89;100.00
36748;BME280;22716;51.556;5.080;2022-12-18T01:55:31;102586.19;;;-3.88;100.00
36748;BME280;22716;51.556;5.080;2022-12-18T01:58:01;102584.63;;;-3.86;100.00
36748;BME280;22716;51.556;5.080;2022-12-18T02:00:33;102562.22;;;-4.00;100.00
36748;BME280;22716;51.556;5.080;2022-12-18T02:03:02;102581.84;;;-3.89;100.00
36748;BME280;22716;51.556;5.080;2022-12-18T02:05:40;102580.16;;;-3.88;100.00
36748;BME280;22716;51.556;5.080;2022-12-18T02:08:15;102593.50;;;-3.92;100.00
36748;BME280;22716;51.556;5.080;2022-12-18T02:10:53;102592.16;;;-3.99;100.00
36748;BME280;22716;51.556;5.080;2022-12-18T02:13:30;102593.38;;;-4.06;100.00
36748;BME280;22716;51.556;5.080;2022-12-18T02:16:09;102590.47;;;-4.10;100.00
36748;BME280;22716;51.556;5.080;2022-12-18T02:18:45;102588.56;;;-4.13;100.00
36748;BME280;22716;51.556;5.080;2022-12-18T02:21:27;102582.22;;;-4.18;100.00
36748;BME280;22716;51.556;5.080;2022-12-18T02:24:07;102581.97;;;-4.21;100.00
36748;BME280;22716;51.556;5.080;2022-12-18T02:26:48;102569.84;;;-4.23;100.00
36748;BME280;22716;51.556;5.080;2022-12-18T02:29:22;102568.59;;;-4.28;100.00
36748;BME280;22716;51.556;5.080;2022-12-18T02:31:53;102567.94;;;-4.26;100.00
36748;BME280;22716;51.556;5.080;2022-12-18T02:34:26;102568.59;;;-4.28;100.00
36748;BME280;22716;51.556;5.080;2022-12-18T02:36:57;102546.31;;;-4.41;100.00
36748;BME280;22716;51.556;5.080;2022-12-18T02:39:28;102571.28;;;-4.27;100.00
36748;BME280;22716;51.556;5.080;2022-12-18T02:42:01;102562.16;;;-4.23;100.00
36748;BME280;22716;51.556;5.080;2022-12-18T02:44:34;102553.06;;;-4.20;100.00
36748;BME280;22716;51.556;5.080;2022-12-18T02:47:02;102550.50;;;-4.20;100.00
36748;BME280;22716;51.556;5.080;2022-12-18T02:49:39;102545.16;;;-4.23;100.00
36748;BME280;22716;51.556;5.080;2022-12-18T02:52:16;102545.38;;;-4.20;100.00
36748;BME280;22716;51.556;5.080;2022-12-18T02:54:57;102545.56;;;-4.17;100.00
36748;BME280;22716;51.556;5.080;2022-12-18T02:57:34;102553.50;;;-4.14;100.00
36748;BME280;22716;51.556;5.080;2022-12-18T03:00:08;102544.25;;;-4.23;100.00
36748;BME280;22716;51.556;5.080;2022-12-18T03:02:45;102543.69;;;-4.19;100.00
36748;BME280;22716;51.556;5.080;2022-12-18T03:05:20;102535.47;;;-4.15;100.00
36748;BME280;22716;51.556;5.080;2022-12-18T03:07:55;102506.84;;;-4.33;100.00
36748;BME280;22716;51.556;5.080;2022-12-18T03:10:27;102526.34;;;-4.23;100.00
36748;BME280;22716;51.556;5.080;2022-12-18T03:13:03;102525.88;;;-4.29;100.00
36748;BME280;22716;51.556;5.080;2022-12-18T03:15:38;102516.84;;;-4.36;100.00
36748;BME280;22716;51.556;5.080;2022-12-18T03:18:09;102531.41;;;-4.35;100.00
36748;BME280;22716;51.556;5.080;2022-12-18T03:20:41;102533.97;;;-4.35;100.00
36748;BME280;22716;51.556;5.080;2022-12-18T03:23:14;102540.84;;;-4.34;100.00
36748;BME280;22716;51.556;5.080;2022-12-18T03:25:45;102548.91;;;-4.29;100.00
36748;BME280;22716;51.556;5.080;2022-12-18T03:28:20;102542.66;;;-4.33;100.00
36748;BME280;22716;51.556;5.080;2022-12-18T03:30:53;102548.66;;;-4.32;100.00
36748;BME280;22716;51.556;5.080;2022-12-18T03:33:26;102545.66;;;-4.38;100.00
36748;BME280;22716;51.556;5.080;2022-12-18T03:35:56;102543.63;;;-4.42;100.00
36748;BME280;22716;51.556;5.080;2022-12-18T03:38:25;102541.84;;;-4.43;100.00
36748;BME280;22716;51.556;5.080;2022-12-18T03:41:00;102523.72;;;-4.46;100.00
36748;BME280;22716;51.556;5.080;2022-12-18T03:43:41;102529.69;;;-4.46;100.00
36748;BME280;22716;51.556;5.080;2022-12-18T03:46:16;102513.91;;;-4.52;100.00
36748;BME280;22716;51.556;5.080;2022-12-18T03:48:54;102507.91;;;-4.53;100.00
36748;BME280;22716;51.556;5.080;2022-12-18T03:51:28;102507.66;;;-4.56;100.00
36748;BME280;22716;51.556;5.080;2022-12-18T03:54:03;102512.78;;;-4.56;100.00
36748;BME280;22716;51.556;5.080;2022-12-18T03:56:36;102489.81;;;-4.66;100.00
36748;BME280;22716;51.556;5.080;2022-12-18T03:59:11;102496.72;;;-4.65;100.00
36748;BME280;22716;51.556;5.080;2022-12-18T04:01:45;102494.81;;;-4.67;100.00
36748;BME280;22716;51.556;5.080;2022-12-18T04:04:16;102502.50;;;-4.67;100.00
36748;BME280;22716;51.556;5.080;2022-12-18T04:06:47;102488.69;;;-4.69;100.00
36748;BME280;22716;51.556;5.080;2022-12-18T04:09:18;102460.66;;;-4.79;100.00
36748;BME280;22716;51.556;5.080;2022-12-18T04:11:47;102474.78;;;-4.73;100.00
36748;BME280;22716;51.556;5.080;2022-12-18T04:14:19;102473.75;;;-4.75;100.00
36748;BME280;22716;51.556;5.080;2022-12-18T04:16:48;102483.75;;;-4.78;100.00
36748;BME280;22716;51.556;5.080;2022-12-18T04:19:17;102489.91;;;-4.76;100.00
36748;BME280;22716;51.556;5.080;2022-12-18T04:21:46;102493.31;;;-4.75;100.00
36748;BME280;22716;51.556;5.080;2022-12-18T04:24:14;102497.56;;;-4.76;100.00
36748;BME280;22716;51.556;5.080;2022-12-18T04:26:43;102501.66;;;-4.78;100.00
36748;BME280;22716;51.556;5.080;2022-12-18T04:29:12;102506.91;;;-4.76;100.00
36748;BME280;22716;51.556;5.080;2022-12-18T04:31:43;102513.78;;;-4.75;100.00
36748;BME280;22716;51.556;5.080;2022-12-18T04:34:12;102514.03;;;-4.72;100.00
36748;BME280;22716;51.556;5.080;2022-12-18T04:36:41;102512.91;;;-4.76;100.00
36748;BME280;22716;51.556;5.080;2022-12-18T04:39:09;102515.34;;;-4.77;100.00
36748;BME280;22716;51.556;5.080;2022-12-18T04:41:38;102514.56;;;-4.76;100.00
36748;BME280;22716;51.556;5.080;2022-12-18T04:44:07;102509.56;;;-4.75;100.00
36748;BME280;22716;51.556;5.080;2022-12-18T04:46:36;102514.69;;;-4.75;100.00
36748;BME280;22716;51.556;5.080;2022-12-18T04:49:07;102510.00;;;-4.80;100.00
36748;BME280;22716;51.556;5.080;2022-12-18T04:51:36;102515.09;;;-4.80;100.00
36748;BME280;22716;51.556;5.080;2022-12-18T04:54:05;102513.31;;;-4.81;100.00
36748;BME280;22716;51.556;5.080;2022-12-18T04:56:34;102520.88;;;-4.83;100.00
36748;BME280;22716;51.556;5.080;2022-12-18T04:59:02;102513.97;;;-4.84;100.00
36748;BME280;22716;51.556;5.080;2022-12-18T05:01:34;102496.72;;;-4.86;100.00
36748;BME280;22716;51.556;5.080;2022-12-18T05:04:03;102498.75;;;-4.82;100.00
36748;BME280;22716;51.556;5.080;2022-12-18T05:06:35;102507.56;;;-4.79;100.00
36748;BME280;22716;51.556;5.080;2022-12-18T05:09:03;102520.22;;;-4.80;100.00
36748;BME280;22716;51.556;5.080;2022-12-18T05:11:32;102516.94;;;-4.89;100.00
36748;BME280;22716;51.556;5.080;2022-12-18T05:14:00;102523.63;;;-4.91;100.00
36748;BME280;22716;51.556;5.080;2022-12-18T05:16:29;102527.97;;;-4.90;100.00
36748;BME280;22716;51.556;5.080;2022-12-18T05:18:58;102524.94;;;-4.96;100.00
36748;BME280;22716;51.556;5.080;2022-12-18T05:21:27;102511.66;;;-5.02;100.00
36748;BME280;22716;51.556;5.080;2022-12-18T05:23:58;102510.88;;;-5.01;100.00
36748;BME280;22716;51.556;5.080;2022-12-18T05:26:27;102517.53;;;-5.03;100.00
36748;BME280;22716;51.556;5.080;2022-12-18T05:28:55;102507.97;;;-5.06;100.00
36748;BME280;22716;51.556;5.080;2022-12-18T05:31:24;102507.22;;;-5.05;100.00
36748;BME280;22716;51.556;5.080;2022-12-18T05:33:53;102505.41;;;-5.06;100.00
36748;BME280;22716;51.556;5.080;2022-12-18T05:36:22;102494.72;;;-5.12;100.00
36748;BME280;22716;51.556;5.080;2022-12-18T05:38:51;102519.34;;;-5.02;100.00
36748;BME280;22716;51.556;5.080;2022-12-18T05:41:22;102482.88;;;-5.22;100.00
36748;BME280;22716;51.556;5.080;2022-12-18T05:43:51;102484.25;;;-5.15;100.00
36748;BME280;22716;51.556;5.080;2022-12-18T05:46:20;102502.09;;;-5.05;100.00
36748;BME280;22716;51.556;5.080;2022-12-18T05:48:50;102502.88;;;-5.06;100.00
36748;BME280;22716;51.556;5.080;2022-12-18T05:51:20;102496.09;;;-5.05;100.00
36748;BME280;22716;51.556;5.080;2022-12-18T05:53:49;102497.50;;;-5.09;100.00
36748;BME280;22716;51.556;5.080;2022-12-18T05:56:22;102492.03;;;-5.14;100.00
36748;BME280;22716;51.556;5.080;2022-12-18T05:58:53;102496.50;;;-5.11;100.00
36748;BME280;22716;51.556;5.080;2022-12-18T06:01:24;102499.59;;;-5.15;100.00
36748;BME280;22716;51.556;5.080;2022-12-18T06:03:53;102500.47;;;-5.15;100.00
36748;BME280;22716;51.556;5.080;2022-12-18T06:06:24;102513.13;;;-5.16;100.00
36748;BME280;22716;51.556;5.080;2022-12-18T06:08:55;102509.47;;;-5.20;100.00
36748;BME280;22716;51.556;5.080;2022-12-18T06:11:27;102503.56;;;-5.19;100.00
36748;BME280;22716;51.556;5.080;2022-12-18T06:13:56;102496.69;;;-5.20;100.00
36748;BME280;22716;51.556;5.080;2022-12-18T06:16:25;102490.44;;;-5.23;100.00
36748;BME280;22716;51.556;5.080;2022-12-18T06:18:55;102500.00;;;-5.21;100.00
36748;BME280;22716;51.556;5.080;2022-12-18T06:21:24;102500.75;;;-5.22;100.00
36748;BME280;22716;51.556;5.080;2022-12-18T06:23:53;102490.53;;;-5.22;100.00
36748;BME280;22716;51.556;5.080;2022-12-18T06:26:22;102488.63;;;-5.24;100.00
36748;BME280;22716;51.556;5.080;2022-12-18T06:28:53;102469.13;;;-5.34;100.00
36748;BME280;22716;51.556;5.080;2022-12-18T06:31:22;102484.84;;;-5.29;100.00
36748;BME280;22716;51.556;5.080;2022-12-18T06:33:51;102473.38;;;-5.34;100.00
36748;BME280;22716;51.556;5.080;2022-12-18T06:36:20;102472.47;;;-5.35;100.00
36748;BME280;22716;51.556;5.080;2022-12-18T06:38:49;102465.72;;;-5.34;100.00
36748;BME280;22716;51.556;5.080;2022-12-18T06:41:20;102466.34;;;-5.37;100.00
36748;BME280;22716;51.556;5.080;2022-12-18T06:43:49;102471.44;;;-5.37;100.00
36748;BME280;22716;51.556;5.080;2022-12-18T06:46:21;102467.88;;;-5.39;100.00
36748;BME280;22716;51.556;5.080;2022-12-18T06:48:50;102473.75;;;-5.40;100.00
36748;BME280;22716;51.556;5.080;2022-12-18T06:51:20;102472.25;;;-5.38;100.00
36748;BME280;22716;51.556;5.080;2022-12-18T06:53:49;102463.78;;;-5.37;100.00
36748;BME280;22716;51.556;5.080;2022-12-18T06:56:18;102464.03;;;-5.34;100.00
36748;BME280;22716;51.556;5.080;2022-12-18T06:58:47;102457.16;;;-5.35;100.00
36748;BME280;22716;51.556;5.080;2022-12-18T07:01:16;102446.31;;;-5.42;100.00
36748;BME280;22716;51.556;5.080;2022-12-18T07:03:51;102457.91;;;-5.36;100.00
36748;BME280;22716;51.556;5.080;2022-12-18T07:06:22;102454.34;;;-5.38;100.00
36748;BME280;22716;51.556;5.080;2022-12-18T07:08:53;102453.47;;;-5.38;100.00
36748;BME280;22716;51.556;5.080;2022-12-18T07:11:22;102453.69;;;-5.35;100.00
36748;BME280;22716;51.556;5.080;2022-12-18T07:13:52;102444.13;;;-5.38;100.00
36748;BME280;22716;51.556;5.080;2022-12-18T07:16:21;102443.25;;;-5.38;100.00
36748;BME280;22716;51.556;5.080;2022-12-18T07:18:54;102417.47;;;-5.41;100.00
36748;BME280;22716;51.556;5.080;2022-12-18T07:21:24;102415.91;;;-5.39;100.00
36748;BME280;22716;51.556;5.080;2022-12-18T07:23:53;102413.00;;;-5.44;100.00
36748;BME280;22716;51.556;5.080;2022-12-18T07:26:22;102388.78;;;-5.49;100.00
36748;BME280;22716;51.556;5.080;2022-12-18T07:28:54;102410.69;;;-5.41;100.00
36748;BME280;22716;51.556;5.080;2022-12-18T07:31:24;102395.13;;;-5.44;100.00
36748;BME280;22716;51.556;5.080;2022-12-18T07:33:56;102397.78;;;-5.42;100.00
36748;BME280;22716;51.556;5.080;2022-12-18T07:36:24;102393.56;;;-5.42;100.00
36748;BME280;22716;51.556;5.080;2022-12-18T07:38:53;102384.91;;;-5.44;100.00
36748;BME280;22716;51.556;5.080;2022-12-18T07:41:22;102391.03;;;-5.42;100.00
36748;BME280;22716;51.556;5.080;2022-12-18T07:43:51;102382.47;;;-5.42;100.00
36748;BME280;22716;51.556;5.080;2022-12-18T07:46:19;102369.44;;;-5.45;100.00
36748;BME280;22716;51.556;5.080;2022-12-18T07:48:48;102370.72;;;-5.40;100.00
36748;BME280;22716;51.556;5.080;2022-12-18T07:51:19;102374.28;;;-5.38;100.00
36748;BME280;22716;51.556;5.080;2022-12-18T07:53:48;102373.03;;;-5.43;100.00
36748;BME280;22716;51.556;5.080;2022-12-18T07:56:17;102388.69;;;-5.39;100.00
36748;BME280;22716;51.556;5.080;2022-12-18T07:58:47;102386.38;;;-5.36;100.00
36748;BME280;22716;51.556;5.080;2022-12-18T08:01:15;102354.06;;;-5.57;100.00
36748;BME280;22716;51.556;5.080;2022-12-18T08:03:44;102395.06;;;-5.34;100.00
36748;BME280;22716;51.556;5.080;2022-12-18T08:06:13;102386.88;;;-5.30;100.00
36748;BME280;22716;51.556;5.080;2022-12-18T08:08:44;102365.94;;;-5.36;100.00
36748;BME280;22716;51.556;5.080;2022-12-18T08:11:13;102385.78;;;-5.22;100.00
36748;BME280;22716;51.556;5.080;2022-12-18T08:13:41;102391.13;;;-5.19;100.00
36748;BME280;22716;51.556;5.080;2022-12-18T08:16:10;102381.47;;;-5.23;100.00
36748;BME280;22716;51.556;5.080;2022-12-18T08:18:39;102366.91;;;-5.24;100.00
36748;BME280;22716;51.556;5.080;2022-12-18T08:21:08;102387.63;;;-5.09;100.00
36748;BME280;22716;51.556;5.080;2022-12-18T08:23:37;102369.16;;;-5.17;100.00
36748;BME280;22716;51.556;5.080;2022-12-18T08:26:09;102389.97;;;-5.00;100.00
36748;BME280;22716;51.556;5.080;2022-12-18T08:28:39;102390.97;;;-4.98;100.00
36748;BME280;22716;51.556;5.080;2022-12-18T08:31:08;102391.34;;;-4.94;100.00
36748;BME280;22716;51.556;5.080;2022-12-18T08:33:38;102379.69;;;-4.90;100.00
36748;BME280;22716;51.556;5.080;2022-12-18T08:36:09;102375.22;;;-4.93;100.00
36748;BME280;22716;51.556;5.080;2022-12-18T08:38:38;102366.47;;;-4.85;100.00
36748;BME280;22716;51.556;5.080;2022-12-18T08:41:11;102366.56;;;-4.83;100.00
36748;BME280;22716;51.556;5.080;2022-12-18T08:43:40;102363.13;;;-4.84;100.00
36748;BME280;22716;51.556;5.080;2022-12-18T08:46:24;102363.47;;;-4.79;100.00
36748;BME280;22716;51.556;5.080;2022-12-18T08:48:54;102367.16;;;-4.76;100.00
36748;BME280;22716;51.556;5.080;2022-12-18T08:51:24;102357.81;;;-4.75;100.00
36748;BME280;22716;51.556;5.080;2022-12-18T08:53:52;102353.59;;;-4.75;100.00
36748;BME280;22716;51.556;5.080;2022-12-18T08:56:24;102362.38;;;-4.71;100.00
36748;BME280;22716;51.556;5.080;2022-12-18T08:58:53;102372.84;;;-4.68;100.00
36748;BME280;22716;51.556;5.080;2022-12-18T09:01:23;102377.66;;;-4.61;100.00
36748;BME280;22716;51.556;5.080;2022-12-18T09:03:52;102391.22;;;-4.50;100.00
36748;BME280;22716;51.556;5.080;2022-12-18T09:06:22;102384.31;;;-4.52;100.00
36748;BME280;22716;51.556;5.080;2022-12-18T09:08:52;102386.41;;;-4.46;100.00
36748;BME280;22716;51.556;5.080;2022-12-18T09:11:24;102387.00;;;-4.38;100.00
36748;BME280;22716;51.556;5.080;2022-12-18T09:13:54;102383.09;;;-4.33;100.00
36748;BME280;22716;51.556;5.080;2022-12-18T09:16:24;102370.97;;;-4.36;100.00
36748;BME280;22716;51.556;5.080;2022-12-18T09:18:54;102372.09;;;-4.32;100.00
36748;BME280;22716;51.556;5.080;2022-12-18T09:21:26;102369.88;;;-4.28;100.00
36748;BME280;22716;51.556;5.080;2022-12-18T09:23:56;102363.22;;;-4.26;100.00
36748;BME280;22716;51.556;5.080;2022-12-18T09:26:27;102351.84;;;-4.29;100.00
36748;BME280;22716;51.556;5.080;2022-12-18T09:28:56;102366.22;;;-4.20;100.00
36748;BME280;22716;51.556;5.080;2022-12-18T09:31:25;102364.66;;;-4.18;100.00
36748;BME280;22716;51.556;5.080;2022-12-18T09:33:54;102352.97;;;-4.14;100.00
36748;BME280;22716;51.556;5.080;2022-12-18T09:36:23;102345.38;;;-4.13;100.00
36748;BME280;22716;51.556;5.080;2022-12-18T09:38:52;102322.91;;;-4.17;100.00
36748;BME280;22716;51.556;5.080;2022-12-18T09:41:42;102347.50;;;-4.07;100.00
36748;BME280;22716;51.556;5.080;2022-12-18T09:44:19;102350.19;;;-4.06;100.00
36748;BME280;22716;51.556;5.080;2022-12-18T09:46:54;102345.28;;;-4.03;100.00
36748;BME280;22716;51.556;5.080;2022-12-18T09:49:29;102340.59;;;-3.97;100.00
36748;BME280;22716;51.556;5.080;2022-12-18T09:52:02;102339.03;;;-3.94;100.00
36748;BME280;22716;51.556;5.080;2022-12-18T09:54:35;102353.16;;;-3.88;100.00
36748;BME280;22716;51.556;5.080;2022-12-18T09:57:12;102336.69;;;-3.91;100.00
36748;BME280;22716;51.556;5.080;2022-12-18T09:59:42;102349.69;;;-3.77;100.00
36748;BME280;22716;51.556;5.080;2022-12-18T10:02:15;102354.91;;;-3.75;100.00
36748;BME280;22716;51.556;5.080;2022-12-18T10:04:59;102334.53;;;-3.74;100.00
36748;BME280;22716;51.556;5.080;2022-12-18T10:07:40;102340.09;;;-3.68;100.00
36748;BME280;22716;51.556;5.080;2022-12-18T10:10:23;102351.88;;;-3.58;100.00
36748;BME280;22716;51.556;5.080;2022-12-18T10:13:06;102333.59;;;-3.63;100.00
36748;BME280;22716;51.556;5.080;2022-12-18T10:15:42;102343.94;;;-3.50;100.00
36748;BME280;22716;51.556;5.080;2022-12-18T10:18:22;102341.13;;;-3.41;100.00
36748;BME280;22716;51.556;5.080;2022-12-18T10:21:01;102326.50;;;-3.42;100.00
36748;BME280;22716;51.556;5.080;2022-12-18T10:23:37;102312.25;;;-3.38;100.00
36748;BME280;22716;51.556;5.080;2022-12-18T10:26:10;102301.41;;;-3.34;100.00
36748;BME280;22716;51.556;5.080;2022-12-18T10:28:43;102282.47;;;-3.36;100.00
36748;BME280;22716;51.556;5.080;2022-12-18T10:31:15;102292.66;;;-3.25;100.00
36748;BME280;22716;51.556;5.080;2022-12-18T10:33:45;102276.59;;;-3.22;100.00
36748;BME280;22716;51.556;5.080;2022-12-18T10:36:14;102274.38;;;-3.18;100.00
36748;BME280;22716;51.556;5.080;2022-12-18T10:38:43;102266.34;;;-3.22;100.00
36748;BME280;22716;51.556;5.080;2022-12-18T10:41:24;102278.13;;;-3.13;100.00
36748;BME280;22716;51.556;5.080;2022-12-18T10:44:17;102282.41;;;-3.00;100.00
36748;BME280;22716;51.556;5.080;2022-12-18T10:46:46;102279.91;;;-2.99;100.00
36748;BME280;22716;51.556;5.080;2022-12-18T10:49:27;102275.78;;;-2.97;100.00
36748;BME280;22716;51.556;5.080;2022-12-18T10:52:14;102269.97;;;-2.94;100.00
36748;BME280;22716;51.556;5.080;2022-12-18T10:54:48;102275.41;;;-2.90;100.00
36748;BME280;22716;51.556;5.080;2022-12-18T10:57:31;102265.25;;;-2.88;100.00
36748;BME280;22716;51.556;5.080;2022-12-18T11:00:24;102267.13;;;-2.86;100.00
36748;BME280;22716;51.556;5.080;2022-12-18T11:02:54;102272.25;;;-2.86;100.00
36748;BME280;22716;51.556;5.080;2022-12-18T11:05:28;102252.31;;;-2.90;100.00
36748;BME280;22716;51.556;5.080;2022-12-18T11:07:58;102274.72;;;-2.74;100.00
36748;BME280;22716;51.556;5.080;2022-12-18T11:10:30;102222.59;;;-2.99;100.00
36748;BME280;22716;51.556;5.080;2022-12-18T11:13:17;102264.88;;;-2.68;100.00
36748;BME280;22716;51.556;5.080;2022-12-18T11:15:50;102242.16;;;-2.75;100.00
36748;BME280;22716;51.556;5.080;2022-12-18T11:18:22;102252.66;;;-2.59;100.00
36748;BME280;22716;51.556;5.080;2022-12-18T11:20:55;102234.38;;;-2.63;100.00
36748;BME280;22716;51.556;5.080;2022-12-18T11:23:25;102253.81;;;-2.54;100.00
36748;BME280;22716;51.556;5.080;2022-12-18T11:25:57;102243.75;;;-2.51;100.00
36748;BME280;22716;51.556;5.080;2022-12-18T11:28:34;102244.91;;;-2.46;100.00
36748;BME280;22716;51.556;5.080;2022-12-18T11:31:21;102252.22;;;-2.39;100.00
36748;BME280;22716;51.556;5.080;2022-12-18T11:33:56;102209.31;;;-2.54;100.00
36748;BME280;22716;51.556;5.080;2022-12-18T11:36:29;102245.31;;;-2.27;100.00
36748;BME280;22716;51.556;5.080;2022-12-18T11:39:04;102251.41;;;-2.24;100.00
36748;BME280;22716;51.556;5.080;2022-12-18T11:41:37;102245.69;;;-2.20;100.00
36748;BME280;22716;51.556;5.080;2022-12-18T11:44:26;102239.88;;;-2.18;100.00
36748;BME280;22716;51.556;5.080;2022-12-18T11:47:01;102231.34;;;-2.17;100.00
36748;BME280;22716;51.556;5.080;2022-12-18T11:49:34;102227.50;;;-2.10;100.00
36748;BME280;22716;51.556;5.080;2022-12-18T11:52:10;102224.13;;;-2.09;100.00
36748;BME280;22716;51.556;5.080;2022-12-18T11:54:42;102210.47;;;-2.08;100.00
36748;BME280;22716;51.556;5.080;2022-12-18T11:57:16;102217.53;;;-2.06;100.00
36748;BME280;22716;51.556;5.080;2022-12-18T11:59:53;102202.91;;;-2.07;100.00
36748;BME280;22716;51.556;5.080;2022-12-18T12:02:42;102203.16;;;-2.02;100.00
36748;BME280;22716;51.556;5.080;2022-12-18T12:05:38;102200.00;;;-1.98;100.00
36748;BME280;22716;51.556;5.080;2022-12-18T12:08:15;102191.78;;;-1.93;100.00
36748;BME280;22716;51.556;5.080;2022-12-18T12:10:55;102174.41;;;-1.97;100.00
36748;BME280;22716;51.556;5.080;2022-12-18T12:13:40;102189.69;;;-1.85;100.00
36748;BME280;22716;51.556;5.080;2022-12-18T12:16:17;102180.47;;;-1.82;100.00
36748;BME280;22716;51.556;5.080;2022-12-18T12:19:04;102175.31;;;-1.82;100.00
36748;BME280;22716;51.556;5.080;2022-12-18T12:21:39;102164.38;;;-1.79;100.00
36748;BME280;22716;51.556;5.080;2022-12-18T12:24:23;102162.94;;;-1.74;100.00
36748;BME280;22716;51.556;5.080;2022-12-18T12:27:02;102162.44;;;-1.68;100.00
36748;BME280;22716;51.556;5.080;2022-12-18T12:29:42;102151.19;;;-1.71;100.00
36748;BME280;22716;51.556;5.080;2022-12-18T12:32:26;102141.69;;;-1.72;100.00
36748;BME280;22716;51.556;5.080;2022-12-18T12:35:09;102142.56;;;-1.71;100.00
36748;BME280;22716;51.556;5.080;2022-12-18T12:37:49;102143.84;;;-1.64;100.00
36748;BME280;22716;51.556;5.080;2022-12-18T12:40:24;102137.00;;;-1.64;100.00
36748;BME280;22716;51.556;5.080;2022-12-18T12:42:58;102140.44;;;-1.63;100.00
36748;BME280;22716;51.556;5.080;2022-12-18T12:45:46;102139.91;;;-1.58;100.00
36748;BME280;22716;51.556;5.080;2022-12-18T12:48:17;102140.81;;;-1.57;100.00
36748;BME280;22716;51.556;5.080;2022-12-18T12:50:50;102134.88;;;-1.56;100.00
36748;BME280;22716;51.556;5.080;2022-12-18T12:53:25;102134.06;;;-1.55;100.00
36748;BME280;22716;51.556;5.080;2022-12-18T12:55:55;102114.75;;;-1.63;100.00
36748;BME280;22716;51.556;5.080;2022-12-18T12:58:35;102132.56;;;-1.52;100.00
36748;BME280;22716;51.556;5.080;2022-12-18T13:01:13;102130.09;;;-1.50;100.00
36748;BME280;22716;51.556;5.080;2022-12-18T13:03:56;102113.88;;;-1.49;100.00
36748;BME280;22716;51.556;5.080;2022-12-18T13:06:37;102124.50;;;-1.43;100.00